3TN1 weather

Methodist Hospital-North Heliport
Memphis, Tennessee, United States

Public forecast

Using degrees Fahrenheit for public forecast. Weather courtesy of forecast.io.

METAR (pilot weather report)

Closest report is Millington-Memphis Airport, 7.4 nm (13.8 km) N. Retrieved 2019/09/21 11:50 UTC (23 minutes ago):

KNQA 211150Z 00000KT 10SM CLR 19/16 A3019

TAF (pilot weather forecast)

Closest forecast is Memphis International Airport, 12.2 nm (22.6 km) SSW. Retrieved 2019/09/21 12:42 UTC (0 seconds ago):

TAF KMEM 211139Z 2112/2218 17006KT P6SM BKN250 FM211500 18009KT P6SM SCT050 BKN250 FM220100 17005KT P6SM FEW050 BKN250 FM221200 19009KT P6SM FEW050 SCT080